sensor_id;sensor_type;location;lat;lon;timestamp;temperature;humidity
65598;SHT31;52267;51.984;20.956;2023-05-10T00:00:04;7.32;56.47
65598;SHT31;52267;51.984;20.956;2023-05-10T00:02:52;7.24;56.62
65598;SHT31;52267;51.984;20.956;2023-05-10T00:05:19;7.16;56.84
65598;SHT31;52267;51.984;20.956;2023-05-10T00:07:46;7.11;57.05
65598;SHT31;52267;51.984;20.956;2023-05-10T00:10:13;7.10;57.59
65598;SHT31;52267;51.984;20.956;2023-05-10T00:12:40;7.06;58.04
65598;SHT31;52267;51.984;20.956;2023-05-10T00:15:07;6.93;58.61
65598;SHT31;52267;51.984;20.956;2023-05-10T00:17:35;6.86;58.13
65598;SHT31;52267;51.984;20.956;2023-05-10T00:20:02;6.78;58.46
65598;SHT31;52267;51.984;20.956;2023-05-10T00:22:31;6.72;58.98
65598;SHT31;52267;51.984;20.956;2023-05-10T00:24:58;6.64;59.46
65598;SHT31;52267;51.984;20.956;2023-05-10T00:27:25;6.58;59.89
65598;SHT31;52267;51.984;20.956;2023-05-10T00:29:52;6.47;59.80
65598;SHT31;52267;51.984;20.956;2023-05-10T00:32:19;6.35;60.33
65598;SHT31;52267;51.984;20.956;2023-05-10T00:34:47;6.26;60.29
65598;SHT31;52267;51.984;20.956;2023-05-10T00:37:13;6.20;60.27
65598;SHT31;52267;51.984;20.956;2023-05-10T00:39:40;6.20;60.06
65598;SHT31;52267;51.984;20.956;2023-05-10T00:42:07;6.18;60.28
65598;SHT31;52267;51.984;20.956;2023-05-10T00:44:34;6.12;60.44
65598;SHT31;52267;51.984;20.956;2023-05-10T00:47:01;6.10;60.90
65598;SHT31;52267;51.984;20.956;2023-05-10T00:49:28;6.05;61.20
65598;SHT31;52267;51.984;20.956;2023-05-10T00:51:56;6.02;61.46
65598;SHT31;52267;51.984;20.956;2023-05-10T00:54:23;5.89;62.02
65598;SHT31;52267;51.984;20.956;2023-05-10T00:56:50;5.77;62.41
65598;SHT31;52267;51.984;20.956;2023-05-10T00:59:18;5.68;62.27
65598;SHT31;52267;51.984;20.956;2023-05-10T01:01:45;5.68;62.34
65598;SHT31;52267;51.984;20.956;2023-05-10T01:04:13;5.67;62.67
65598;SHT31;52267;51.984;20.956;2023-05-10T01:06:41;5.64;62.69
65598;SHT31;52267;51.984;20.956;2023-05-10T01:09:08;5.63;62.53
65598;SHT31;52267;51.984;20.956;2023-05-10T01:11:36;5.59;62.55
65598;SHT31;52267;51.984;20.956;2023-05-10T01:14:05;5.55;62.31
65598;SHT31;52267;51.984;20.956;2023-05-10T01:16:34;5.54;62.61
65598;SHT31;52267;51.984;20.956;2023-05-10T01:19:38;5.51;62.85
65598;SHT31;52267;51.984;20.956;2023-05-10T01:25:03;5.45;63.34
65598;SHT31;52267;51.984;20.956;2023-05-10T01:28:08;5.43;63.48
65598;SHT31;52267;51.984;20.956;2023-05-10T01:33:43;5.30;63.85
65598;SHT31;52267;51.984;20.956;2023-05-10T01:42:19;5.21;63.98
65598;SHT31;52267;51.984;20.956;2023-05-10T01:44:57;5.17;64.01
65598;SHT31;52267;51.984;20.956;2023-05-10T01:47:43;5.11;63.83
65598;SHT31;52267;51.984;20.956;2023-05-10T01:50:21;5.08;63.68
65598;SHT31;52267;51.984;20.956;2023-05-10T01:52:55;5.04;64.13
65598;SHT31;52267;51.984;20.956;2023-05-10T01:55:26;5.00;64.42
65598;SHT31;52267;51.984;20.956;2023-05-10T01:57:59;4.97;64.31
65598;SHT31;52267;51.984;20.956;2023-05-10T02:00:37;4.95;64.25
65598;SHT31;52267;51.984;20.956;2023-05-10T02:03:10;4.90;64.38
65598;SHT31;52267;51.984;20.956;2023-05-10T02:05:38;4.88;64.44
65598;SHT31;52267;51.984;20.956;2023-05-10T02:08:07;4.83;64.57
65598;SHT31;52267;51.984;20.956;2023-05-10T02:10:36;4.82;64.54
65598;SHT31;52267;51.984;20.956;2023-05-10T02:13:05;4.80;64.44
65598;SHT31;52267;51.984;20.956;2023-05-10T02:15:34;4.73;65.06
65598;SHT31;52267;51.984;20.956;2023-05-10T02:18:02;4.71;65.08
65598;SHT31;52267;51.984;20.956;2023-05-10T02:20:32;4.70;65.14
65598;SHT31;52267;51.984;20.956;2023-05-10T02:23:01;4.70;65.19
65598;SHT31;52267;51.984;20.956;2023-05-10T02:25:30;4.66;65.36
65598;SHT31;52267;51.984;20.956;2023-05-10T02:27:59;4.63;65.40
65598;SHT31;52267;51.984;20.956;2023-05-10T02:30:29;4.59;65.76
65598;SHT31;52267;51.984;20.956;2023-05-10T02:32:59;4.53;65.94
65598;SHT31;52267;51.984;20.956;2023-05-10T02:35:26;4.47;65.97
65598;SHT31;52267;51.984;20.956;2023-05-10T02:37:54;4.42;66.19
65598;SHT31;52267;51.984;20.956;2023-05-10T02:40:25;4.37;66.35
65598;SHT31;52267;51.984;20.956;2023-05-10T02:42:54;4.36;66.16
65598;SHT31;52267;51.984;20.956;2023-05-10T02:45:23;4.34;66.10
65598;SHT31;52267;51.984;20.956;2023-05-10T02:47:54;4.32;66.12
65598;SHT31;52267;51.984;20.956;2023-05-10T02:50:23;4.27;66.48
65598;SHT31;52267;51.984;20.956;2023-05-10T02:52:56;4.25;66.52
65598;SHT31;52267;51.984;20.956;2023-05-10T02:55:39;4.20;66.69
65598;SHT31;52267;51.984;20.956;2023-05-10T02:58:09;4.18;66.82
65598;SHT31;52267;51.984;20.956;2023-05-10T03:00:36;4.14;66.91
65598;SHT31;52267;51.984;20.956;2023-05-10T03:03:03;4.12;66.97
65598;SHT31;52267;51.984;20.956;2023-05-10T03:05:30;4.10;66.99
65598;SHT31;52267;51.984;20.956;2023-05-10T03:07:57;4.10;67.01
65598;SHT31;52267;51.984;20.956;2023-05-10T03:10:26;4.10;66.98
65598;SHT31;52267;51.984;20.956;2023-05-10T03:16:29;4.15;67.42
65598;SHT31;52267;51.984;20.956;2023-05-10T03:18:44;4.18;67.42
65598;SHT31;52267;51.984;20.956;2023-05-10T03:21:22;4.17;67.55
65598;SHT31;52267;51.984;20.956;2023-05-10T03:23:59;4.20;67.26
65598;SHT31;52267;51.984;20.956;2023-05-10T03:26:34;4.22;67.21
65598;SHT31;52267;51.984;20.956;2023-05-10T03:29:02;4.24;67.19
65598;SHT31;52267;51.984;20.956;2023-05-10T03:31:32;4.31;67.09
65598;SHT31;52267;51.984;20.956;2023-05-10T03:33:59;4.35;67.24
65598;SHT31;52267;51.984;20.956;2023-05-10T03:36:26;4.38;67.16
65598;SHT31;52267;51.984;20.956;2023-05-10T03:38:53;4.41;67.32
65598;SHT31;52267;51.984;20.956;2023-05-10T03:41:20;4.44;67.10
65598;SHT31;52267;51.984;20.956;2023-05-10T03:43:47;4.49;66.99
65598;SHT31;52267;51.984;20.956;2023-05-10T03:46:14;4.57;67.06
65598;SHT31;52267;51.984;20.956;2023-05-10T03:48:41;4.63;66.88
65598;SHT31;52267;51.984;20.956;2023-05-10T03:51:08;4.69;67.03
65598;SHT31;52267;51.984;20.956;2023-05-10T03:53:35;4.75;66.79
65598;SHT31;52267;51.984;20.956;2023-05-10T03:56:03;4.85;66.45
65598;SHT31;52267;51.984;20.956;2023-05-10T03:58:30;4.91;66.55
65598;SHT31;52267;51.984;20.956;2023-05-10T04:00:57;5.00;66.08
65598;SHT31;52267;51.984;20.956;2023-05-10T04:03:24;5.09;65.72
65598;SHT31;52267;51.984;20.956;2023-05-10T04:05:59;5.18;65.31
65598;SHT31;52267;51.984;20.956;2023-05-10T04:08:27;5.31;65.45
65598;SHT31;52267;51.984;20.956;2023-05-10T04:11:04;5.40;65.49
65598;SHT31;52267;51.984;20.956;2023-05-10T04:13:33;5.51;65.51
65598;SHT31;52267;51.984;20.956;2023-05-10T04:16:00;5.62;64.97
65598;SHT31;52267;51.984;20.956;2023-05-10T04:18:28;5.73;64.74
65598;SHT31;52267;51.984;20.956;2023-05-10T04:20:55;5.84;64.73
65598;SHT31;52267;51.984;20.956;2023-05-10T04:23:22;5.96;64.32
65598;SHT31;52267;51.984;20.956;2023-05-10T04:25:49;6.08;64.30
65598;SHT31;52267;51.984;20.956;2023-05-10T04:28:16;6.19;64.36
65598;SHT31;52267;51.984;20.956;2023-05-10T04:30:43;6.32;64.01
65598;SHT31;52267;51.984;20.956;2023-05-10T04:33:10;6.47;63.72
65598;SHT31;52267;51.984;20.956;2023-05-10T04:35:37;6.59;64.14
65598;SHT31;52267;51.984;20.956;2023-05-10T04:38:06;6.72;63.60
65598;SHT31;52267;51.984;20.956;2023-05-10T04:40:33;6.83;62.98
65598;SHT31;52267;51.984;20.956;2023-05-10T04:43:00;6.97;63.14
65598;SHT31;52267;51.984;20.956;2023-05-10T04:45:27;7.11;62.84
65598;SHT31;52267;51.984;20.956;2023-05-10T04:47:54;7.23;62.74
65598;SHT31;52267;51.984;20.956;2023-05-10T04:50:21;7.37;62.38
65598;SHT31;52267;51.984;20.956;2023-05-10T04:52:48;7.49;62.11
65598;SHT31;52267;51.984;20.956;2023-05-10T04:55:15;7.61;61.93
65598;SHT31;52267;51.984;20.956;2023-05-10T04:57:42;7.73;61.66
65598;SHT31;52267;51.984;20.956;2023-05-10T05:00:09;7.84;61.62
65598;SHT31;52267;51.984;20.956;2023-05-10T05:02:37;7.99;61.74
65598;SHT31;52267;51.984;20.956;2023-05-10T05:05:05;8.14;61.36
65598;SHT31;52267;51.984;20.956;2023-05-10T05:07:32;8.27;61.19
65598;SHT31;52267;51.984;20.956;2023-05-10T05:09:59;8.40;60.99
65598;SHT31;52267;51.984;20.956;2023-05-10T05:12:26;8.53;60.81
65598;SHT31;52267;51.984;20.956;2023-05-10T05:14:53;8.66;60.69
65598;SHT31;52267;51.984;20.956;2023-05-10T05:17:20;8.81;60.21
65598;SHT31;52267;51.984;20.956;2023-05-10T05:19:47;8.96;59.82
65598;SHT31;52267;51.984;20.956;2023-05-10T05:22:14;9.06;59.82
65598;SHT31;52267;51.984;20.956;2023-05-10T05:24:41;9.20;59.63
65598;SHT31;52267;51.984;20.956;2023-05-10T05:27:08;9.33;59.52
65598;SHT31;52267;51.984;20.956;2023-05-10T05:29:35;9.48;59.55
65598;SHT31;52267;51.984;20.956;2023-05-10T05:32:02;9.62;58.58
65598;SHT31;52267;51.984;20.956;2023-05-10T05:34:30;9.76;58.78
65598;SHT31;52267;51.984;20.956;2023-05-10T05:36:57;9.88;58.88
65598;SHT31;52267;51.984;20.956;2023-05-10T05:39:24;10.02;58.39
65598;SHT31;52267;51.984;20.956;2023-05-10T05:41:51;10.13;57.62
65598;SHT31;52267;51.984;20.956;2023-05-10T05:44:18;10.23;57.73
65598;SHT31;52267;51.984;20.956;2023-05-10T05:46:45;10.33;57.40
65598;SHT31;52267;51.984;20.956;2023-05-10T05:49:12;10.45;57.99
65598;SHT31;52267;51.984;20.956;2023-05-10T05:51:39;10.63;57.79
65598;SHT31;52267;51.984;20.956;2023-05-10T05:54:06;10.79;56.95
65598;SHT31;52267;51.984;20.956;2023-05-10T05:56:33;10.91;56.05
65598;SHT31;52267;51.984;20.956;2023-05-10T05:59:00;11.02;56.48
65598;SHT31;52267;51.984;20.956;2023-05-10T06:01:27;11.15;55.47
65598;SHT31;52267;51.984;20.956;2023-05-10T06:03:54;11.27;55.84
65598;SHT31;52267;51.984;20.956;2023-05-10T06:06:21;11.41;55.23
65598;SHT31;52267;51.984;20.956;2023-05-10T06:08:48;11.54;54.76
65598;SHT31;52267;51.984;20.956;2023-05-10T06:11:15;11.68;54.59
65598;SHT31;52267;51.984;20.956;2023-05-10T06:13:42;11.77;53.72
65598;SHT31;52267;51.984;20.956;2023-05-10T06:16:09;11.92;54.64
65598;SHT31;52267;51.984;20.956;2023-05-10T06:18:36;12.12;54.29
65598;SHT31;52267;51.984;20.956;2023-05-10T06:21:03;12.31;54.01
65598;SHT31;52267;51.984;20.956;2023-05-10T06:23:31;12.46;53.46
65598;SHT31;52267;51.984;20.956;2023-05-10T06:25:58;12.61;53.69
65598;SHT31;52267;51.984;20.956;2023-05-10T06:28:24;12.77;52.23
65598;SHT31;52267;51.984;20.956;2023-05-10T06:30:51;12.91;52.46
65598;SHT31;52267;51.984;20.956;2023-05-10T06:33:18;13.05;51.32
65598;SHT31;52267;51.984;20.956;2023-05-10T06:35:45;13.21;50.52
65598;SHT31;52267;51.984;20.956;2023-05-10T06:38:15;13.33;49.89
65598;SHT31;52267;51.984;20.956;2023-05-10T06:40:43;13.43;49.66
65598;SHT31;52267;51.984;20.956;2023-05-10T06:43:10;13.63;50.25
65598;SHT31;52267;51.984;20.956;2023-05-10T06:45:37;13.77;48.41
65598;SHT31;52267;51.984;20.956;2023-05-10T06:48:04;13.90;49.98
65598;SHT31;52267;51.984;20.956;2023-05-10T06:50:31;14.03;48.47
65598;SHT31;52267;51.984;20.956;2023-05-10T06:52:59;14.19;48.73
65598;SHT31;52267;51.984;20.956;2023-05-10T06:55:26;14.39;47.47
65598;SHT31;52267;51.984;20.956;2023-05-10T06:57:54;14.54;46.78
65598;SHT31;52267;51.984;20.956;2023-05-10T07:00:21;14.65;44.08
65598;SHT31;52267;51.984;20.956;2023-05-10T07:02:48;14.69;43.49
65598;SHT31;52267;51.984;20.956;2023-05-10T07:05:15;14.66;42.72
65598;SHT31;52267;51.984;20.956;2023-05-10T07:07:42;14.83;43.87
65598;SHT31;52267;51.984;20.956;2023-05-10T07:10:09;14.99;42.93
65598;SHT31;52267;51.984;20.956;2023-05-10T07:12:37;15.21;43.24
65598;SHT31;52267;51.984;20.956;2023-05-10T07:15:04;15.40;42.56
65598;SHT31;52267;51.984;20.956;2023-05-10T07:17:32;15.51;41.51
65598;SHT31;52267;51.984;20.956;2023-05-10T07:20:00;15.57;41.67
65598;SHT31;52267;51.984;20.956;2023-05-10T07:22:27;15.82;42.48
65598;SHT31;52267;51.984;20.956;2023-05-10T07:24:54;16.06;41.63
65598;SHT31;52267;51.984;20.956;2023-05-10T07:27:21;16.21;41.32
65598;SHT31;52267;51.984;20.956;2023-05-10T07:29:48;16.27;39.55
65598;SHT31;52267;51.984;20.956;2023-05-10T07:32:16;16.29;38.13
65598;SHT31;52267;51.984;20.956;2023-05-10T07:34:43;16.31;37.74
65598;SHT31;52267;51.984;20.956;2023-05-10T07:37:10;16.39;38.55
65598;SHT31;52267;51.984;20.956;2023-05-10T07:39:37;16.59;37.29
65598;SHT31;52267;51.984;20.956;2023-05-10T07:42:04;16.76;37.51
65598;SHT31;52267;51.984;20.956;2023-05-10T07:44:32;16.90;37.52
65598;SHT31;52267;51.984;20.956;2023-05-10T07:46:59;17.03;36.94
65598;SHT31;52267;51.984;20.956;2023-05-10T07:49:26;17.15;36.06
65598;SHT31;52267;51.984;20.956;2023-05-10T07:51:53;17.17;35.42
65598;SHT31;52267;51.984;20.956;2023-05-10T07:54:20;17.23;34.78
65598;SHT31;52267;51.984;20.956;2023-05-10T07:56:47;17.26;34.33
65598;SHT31;52267;51.984;20.956;2023-05-10T07:59:15;17.44;35.07
65598;SHT31;52267;51.984;20.956;2023-05-10T08:01:44;17.50;34.87
65598;SHT31;52267;51.984;20.956;2023-05-10T08:04:11;17.70;35.23
65598;SHT31;52267;51.984;20.956;2023-05-10T08:06:38;17.69;33.61
65598;SHT31;52267;51.984;20.956;2023-05-10T08:09:06;17.39;32.16
65598;SHT31;52267;51.984;20.956;2023-05-10T08:11:33;17.40;32.19
65598;SHT31;52267;51.984;20.956;2023-05-10T08:14:01;17.36;32.39
65598;SHT31;52267;51.984;20.956;2023-05-10T08:16:28;17.34;32.98
65598;SHT31;52267;51.984;20.956;2023-05-10T08:18:55;17.45;32.57
65598;SHT31;52267;51.984;20.956;2023-05-10T08:21:22;17.53;31.72
65598;SHT31;52267;51.984;20.956;2023-05-10T08:23:50;17.36;30.50
65598;SHT31;52267;51.984;20.956;2023-05-10T08:26:17;17.61;32.18
65598;SHT31;52267;51.984;20.956;2023-05-10T08:28:44;17.82;32.04
65598;SHT31;52267;51.984;20.956;2023-05-10T08:31:11;17.65;31.20
65598;SHT31;52267;51.984;20.956;2023-05-10T08:33:38;17.63;31.30
65598;SHT31;52267;51.984;20.956;2023-05-10T08:36:05;17.80;32.52
65598;SHT31;52267;51.984;20.956;2023-05-10T08:38:32;17.94;31.97
65598;SHT31;52267;51.984;20.956;2023-05-10T08:41:00;18.23;32.85
65598;SHT31;52267;51.984;20.956;2023-05-10T08:43:29;18.52;33.14
65598;SHT31;52267;51.984;20.956;2023-05-10T08:45:56;18.67;33.23
65598;SHT31;52267;51.984;20.956;2023-05-10T08:48:29;18.61;32.06
65598;SHT31;52267;51.984;20.956;2023-05-10T08:50:58;18.60;32.90
65598;SHT31;52267;51.984;20.956;2023-05-10T08:53:27;18.60;32.40
65598;SHT31;52267;51.984;20.956;2023-05-10T08:55:58;18.75;32.47
65598;SHT31;52267;51.984;20.956;2023-05-10T08:58:25;18.55;30.85
65598;SHT31;52267;51.984;20.956;2023-05-10T09:00:52;18.61;32.27
65598;SHT31;52267;51.984;20.956;2023-05-10T09:03:20;18.92;32.50
65598;SHT31;52267;51.984;20.956;2023-05-10T09:05:47;19.03;32.56
65598;SHT31;52267;51.984;20.956;2023-05-10T09:08:15;19.04;31.64
65598;SHT31;52267;51.984;20.956;2023-05-10T09:10:43;19.09;31.87
65598;SHT31;52267;51.984;20.956;2023-05-10T09:13:13;19.22;32.00
65598;SHT31;52267;51.984;20.956;2023-05-10T09:15:44;19.43;31.55
65598;SHT31;52267;51.984;20.956;2023-05-10T09:18:12;19.74;31.80
65598;SHT31;52267;51.984;20.956;2023-05-10T09:20:39;19.83;30.87
65598;SHT31;52267;51.984;20.956;2023-05-10T09:23:07;19.90;31.04
65598;SHT31;52267;51.984;20.956;2023-05-10T09:25:35;19.99;31.22
65598;SHT31;52267;51.984;20.956;2023-05-10T09:28:05;19.99;31.18
65598;SHT31;52267;51.984;20.956;2023-05-10T09:30:35;20.15;31.39
65598;SHT31;52267;51.984;20.956;2023-05-10T09:33:02;20.20;30.75
65598;SHT31;52267;51.984;20.956;2023-05-10T09:35:31;20.22;30.60
65598;SHT31;52267;51.984;20.956;2023-05-10T09:38:03;19.92;27.95
65598;SHT31;52267;51.984;20.956;2023-05-10T09:40:32;19.79;29.55
65598;SHT31;52267;51.984;20.956;2023-05-10T09:45:32;20.27;29.18
65598;SHT31;52267;51.984;20.956;2023-05-10T09:48:02;20.33;28.98
65598;SHT31;52267;51.984;20.956;2023-05-10T09:50:30;20.39;29.12
65598;SHT31;52267;51.984;20.956;2023-05-10T09:52:59;20.33;28.81
65598;SHT31;52267;51.984;20.956;2023-05-10T09:58:02;20.34;28.87
65598;SHT31;52267;51.984;20.956;2023-05-10T10:00:34;20.36;28.37
65598;SHT31;52267;51.984;20.956;2023-05-10T10:03:07;20.22;28.67
65598;SHT31;52267;51.984;20.956;2023-05-10T10:05:41;20.16;28.15
65598;SHT31;52267;51.984;20.956;2023-05-10T10:08:10;20.28;28.11
65598;SHT31;52267;51.984;20.956;2023-05-10T10:10:38;20.24;27.61
65598;SHT31;52267;51.984;20.956;2023-05-10T10:13:11;20.05;27.25
65598;SHT31;52267;51.984;20.956;2023-05-10T10:15:39;20.13;27.74
65598;SHT31;52267;51.984;20.956;2023-05-10T10:18:06;20.29;28.54
65598;SHT31;52267;51.984;20.956;2023-05-10T10:20:35;19.99;28.13
65598;SHT31;52267;51.984;20.956;2023-05-10T10:23:04;20.22;28.58
65598;SHT31;52267;51.984;20.956;2023-05-10T10:25:31;20.21;27.52
65598;SHT31;52267;51.984;20.956;2023-05-10T10:28:06;20.20;28.31
65598;SHT31;52267;51.984;20.956;2023-05-10T10:31:01;20.50;29.14
65598;SHT31;52267;51.984;20.956;2023-05-10T10:34:08;20.37;28.45
65598;SHT31;52267;51.984;20.956;2023-05-10T10:36:42;20.53;28.81
65598;SHT31;52267;51.984;20.956;2023-05-10T10:39:12;20.64;28.49
65598;SHT31;52267;51.984;20.956;2023-05-10T10:41:49;20.76;29.15
65598;SHT31;52267;51.984;20.956;2023-05-10T10:47:31;20.66;27.95
65598;SHT31;52267;51.984;20.956;2023-05-10T10:49:51;20.58;27.59
65598;SHT31;52267;51.984;20.956;2023-05-10T10:52:39;20.76;28.25
65598;SHT31;52267;51.984;20.956;2023-05-10T10:55:14;20.83;28.17
65598;SHT31;52267;51.984;20.956;2023-05-10T10:57:49;20.81;27.54
65598;SHT31;52267;51.984;20.956;2023-05-10T11:00:33;20.66;27.67
65598;SHT31;52267;51.984;20.956;2023-05-10T11:03:10;20.65;28.02
65598;SHT31;52267;51.984;20.956;2023-05-10T11:05:41;20.64;27.93
65598;SHT31;52267;51.984;20.956;2023-05-10T11:08:17;20.58;27.41
65598;SHT31;52267;51.984;20.956;2023-05-10T11:13:28;20.26;28.45
65598;SHT31;52267;51.984;20.956;2023-05-10T11:15:57;20.44;27.98
65598;SHT31;52267;51.984;20.956;2023-05-10T11:18:29;20.66;28.42
65598;SHT31;52267;51.984;20.956;2023-05-10T11:20:57;20.66;28.46
65598;SHT31;52267;51.984;20.956;2023-05-10T11:23:30;20.78;28.60
65598;SHT31;52267;51.984;20.956;2023-05-10T11:25:59;20.66;27.54
65598;SHT31;52267;51.984;20.956;2023-05-10T11:28:27;20.73;28.52
65598;SHT31;52267;51.984;20.956;2023-05-10T11:30:54;20.80;28.10
65598;SHT31;52267;51.984;20.956;2023-05-10T11:33:22;20.71;27.91
65598;SHT31;52267;51.984;20.956;2023-05-10T11:35:49;20.61;27.65
65598;SHT31;52267;51.984;20.956;2023-05-10T11:38:17;20.59;27.80
65598;SHT31;52267;51.984;20.956;2023-05-10T11:40:44;20.71;28.04
65598;SHT31;52267;51.984;20.956;2023-05-10T11:43:11;20.75;28.27
65598;SHT31;52267;51.984;20.956;2023-05-10T11:45:41;20.70;27.63
65598;SHT31;52267;51.984;20.956;2023-05-10T11:48:09;20.61;27.85
65598;SHT31;52267;51.984;20.956;2023-05-10T11:50:36;20.51;27.55
65598;SHT31;52267;51.984;20.956;2023-05-10T11:53:03;20.33;27.19
65598;SHT31;52267;51.984;20.956;2023-05-10T11:55:32;20.35;27.60
65598;SHT31;52267;51.984;20.956;2023-05-10T11:58:00;20.43;28.04
65598;SHT31;52267;51.984;20.956;2023-05-10T12:00:29;20.55;28.10
65598;SHT31;52267;51.984;20.956;2023-05-10T12:02:57;20.47;28.08
65598;SHT31;52267;51.984;20.956;2023-05-10T12:05:24;20.24;27.27
65598;SHT31;52267;51.984;20.956;2023-05-10T12:07:52;20.21;28.01
65598;SHT31;52267;51.984;20.956;2023-05-10T12:10:24;20.21;27.60
65598;SHT31;52267;51.984;20.956;2023-05-10T12:12:53;20.35;28.28
65598;SHT31;52267;51.984;20.956;2023-05-10T12:15:21;20.55;28.16
65598;SHT31;52267;51.984;20.956;2023-05-10T12:17:50;20.58;28.07
65598;SHT31;52267;51.984;20.956;2023-05-10T12:20:21;20.59;28.53
65598;SHT31;52267;51.984;20.956;2023-05-10T12:22:54;20.72;27.91
65598;SHT31;52267;51.984;20.956;2023-05-10T12:25:23;20.71;27.87
65598;SHT31;52267;51.984;20.956;2023-05-10T12:27:57;20.70;27.65
65598;SHT31;52267;51.984;20.956;2023-05-10T12:30:27;20.51;27.82
65598;SHT31;52267;51.984;20.956;2023-05-10T12:33:00;20.79;27.89
65598;SHT31;52267;51.984;20.956;2023-05-10T12:35:43;20.73;27.41
65598;SHT31;52267;51.984;20.956;2023-05-10T12:38:28;20.84;28.34
65598;SHT31;52267;51.984;20.956;2023-05-10T12:41:00;20.74;28.13
65598;SHT31;52267;51.984;20.956;2023-05-10T12:43:30;20.58;28.57
65598;SHT31;52267;51.984;20.956;2023-05-10T12:45:58;20.64;28.31
65598;SHT31;52267;51.984;20.956;2023-05-10T12:48:30;20.84;28.54
65598;SHT31;52267;51.984;20.956;2023-05-10T12:50:58;20.97;28.15
65598;SHT31;52267;51.984;20.956;2023-05-10T12:53:25;20.86;27.60
65598;SHT31;52267;51.984;20.956;2023-05-10T12:55:52;20.72;27.47
65598;SHT31;52267;51.984;20.956;2023-05-10T12:58:19;20.59;28.08
65598;SHT31;52267;51.984;20.956;2023-05-10T13:00:46;20.50;27.91
65598;SHT31;52267;51.984;20.956;2023-05-10T13:03:13;20.82;28.72
65598;SHT31;52267;51.984;20.956;2023-05-10T13:05:42;20.73;27.63
65598;SHT31;52267;51.984;20.956;2023-05-10T13:08:09;20.87;28.47
65598;SHT31;52267;51.984;20.956;2023-05-10T13:10:36;21.04;28.30
65598;SHT31;52267;51.984;20.956;2023-05-10T13:13:03;21.06;28.00
65598;SHT31;52267;51.984;20.956;2023-05-10T13:15:30;21.03;27.66
65598;SHT31;52267;51.984;20.956;2023-05-10T13:17:57;20.81;27.78
65598;SHT31;52267;51.984;20.956;2023-05-10T13:20:24;20.87;28.58
65598;SHT31;52267;51.984;20.956;2023-05-10T13:22:52;20.93;27.79
65598;SHT31;52267;51.984;20.956;2023-05-10T13:25:19;20.98;27.66
65598;SHT31;52267;51.984;20.956;2023-05-10T13:27:46;20.76;27.64
65598;SHT31;52267;51.984;20.956;2023-05-10T13:30:13;20.95;28.20
65598;SHT31;52267;51.984;20.956;2023-05-10T13:32:40;21.13;27.90
65598;SHT31;52267;51.984;20.956;2023-05-10T13:35:07;21.09;27.79
65598;SHT31;52267;51.984;20.956;2023-05-10T13:37:34;21.04;28.03
65598;SHT31;52267;51.984;20.956;2023-05-10T13:40:03;21.02;28.40
65598;SHT31;52267;51.984;20.956;2023-05-10T13:42:31;21.02;27.86
65598;SHT31;52267;51.984;20.956;2023-05-10T13:45:00;20.79;27.68
65598;SHT31;52267;51.984;20.956;2023-05-10T13:47:28;20.83;27.88
65598;SHT31;52267;51.984;20.956;2023-05-10T13:49:55;20.82;27.55
65598;SHT31;52267;51.984;20.956;2023-05-10T13:52:22;20.70;27.26
65598;SHT31;52267;51.984;20.956;2023-05-10T13:54:49;20.56;27.92
65598;SHT31;52267;51.984;20.956;2023-05-10T13:57:18;20.67;28.26
65598;SHT31;52267;51.984;20.956;2023-05-10T13:59:45;20.71;27.84
65598;SHT31;52267;51.984;20.956;2023-05-10T14:02:12;20.82;28.03
65598;SHT31;52267;51.984;20.956;2023-05-10T14:04:39;20.80;27.99
65598;SHT31;52267;51.984;20.956;2023-05-10T14:07:06;20.75;28.20
65598;SHT31;52267;51.984;20.956;2023-05-10T14:09:33;20.73;28.00
65598;SHT31;52267;51.984;20.956;2023-05-10T14:12:00;20.78;28.35
65598;SHT31;52267;51.984;20.956;2023-05-10T14:14:28;20.78;28.05
65598;SHT31;52267;51.984;20.956;2023-05-10T14:16:55;20.70;28.38
65598;SHT31;52267;51.984;20.956;2023-05-10T14:19:22;20.60;28.43
65598;SHT31;52267;51.984;20.956;2023-05-10T14:21:49;20.78;28.64
65598;SHT31;52267;51.984;20.956;2023-05-10T14:24:18;20.62;27.86
65598;SHT31;52267;51.984;20.956;2023-05-10T14:26:45;20.38;27.68
65598;SHT31;52267;51.984;20.956;2023-05-10T14:29:12;20.19;28.13
65598;SHT31;52267;51.984;20.956;2023-05-10T14:31:39;20.18;28.26
65598;SHT31;52267;51.984;20.956;2023-05-10T14:34:07;20.23;28.72
65598;SHT31;52267;51.984;20.956;2023-05-10T14:36:34;20.13;29.14
65598;SHT31;52267;51.984;20.956;2023-05-10T14:39:01;20.03;28.91
65598;SHT31;52267;51.984;20.956;2023-05-10T14:41:29;19.93;29.28
65598;SHT31;52267;51.984;20.956;2023-05-10T14:43:56;19.83;29.90
65598;SHT31;52267;51.984;20.956;2023-05-10T14:46:23;20.03;29.97
65598;SHT31;52267;51.984;20.956;2023-05-10T14:48:50;20.12;29.44
65598;SHT31;52267;51.984;20.956;2023-05-10T14:51:17;20.13;29.68
65598;SHT31;52267;51.984;20.956;2023-05-10T14:53:48;20.18;29.44
65598;SHT31;52267;51.984;20.956;2023-05-10T14:56:18;20.11;29.17
65598;SHT31;52267;51.984;20.956;2023-05-10T14:58:45;20.05;29.36
65598;SHT31;52267;51.984;20.956;2023-05-10T15:01:12;20.17;29.25
65598;SHT31;52267;51.984;20.956;2023-05-10T15:03:39;20.13;29.48
65598;SHT31;52267;51.984;20.956;2023-05-10T15:06:07;20.09;29.02
65598;SHT31;52267;51.984;20.956;2023-05-10T15:08:35;20.06;29.04
65598;SHT31;52267;51.984;20.956;2023-05-10T15:11:02;20.08;29.46
65598;SHT31;52267;51.984;20.956;2023-05-10T15:13:29;19.99;29.02
65598;SHT31;52267;51.984;20.956;2023-05-10T15:15:56;19.98;29.21
65598;SHT31;52267;51.984;20.956;2023-05-10T15:18:23;19.90;29.15
65598;SHT31;52267;51.984;20.956;2023-05-10T15:20:50;19.78;29.24
65598;SHT31;52267;51.984;20.956;2023-05-10T15:23:17;19.77;29.04
65598;SHT31;52267;51.984;20.956;2023-05-10T15:25:44;19.69;29.09
65598;SHT31;52267;51.984;20.956;2023-05-10T15:28:11;19.75;29.92
65598;SHT31;52267;51.984;20.956;2023-05-10T15:30:38;19.70;29.84
65598;SHT31;52267;51.984;20.956;2023-05-10T15:33:05;19.53;29.56
65598;SHT31;52267;51.984;20.956;2023-05-10T15:35:34;19.50;30.11
65598;SHT31;52267;51.984;20.956;2023-05-10T15:38:02;19.49;30.37
65598;SHT31;52267;51.984;20.956;2023-05-10T15:40:29;19.39;30.16
65598;SHT31;52267;51.984;20.956;2023-05-10T15:42:56;19.29;30.30
65598;SHT31;52267;51.984;20.956;2023-05-10T15:45:23;19.26;30.78
65598;SHT31;52267;51.984;20.956;2023-05-10T15:47:50;19.21;30.46
65598;SHT31;52267;51.984;20.956;2023-05-10T15:50:18;19.17;30.61
65598;SHT31;52267;51.984;20.956;2023-05-10T15:52:45;19.15;30.42
65598;SHT31;52267;51.984;20.956;2023-05-10T15:55:12;19.11;30.77